sensor_id;sensor_type;location;lat;lon;timestamp;P1;durP1;ratioP1;P2;durP2;ratioP2
25982;SDS011;13773;48.868;10.730;2022-09-21T00:01:19;7.00;;;5.50;;
25982;SDS011;13773;48.868;10.730;2022-09-21T00:03:53;9.23;;;6.27;;
25982;SDS011;13773;48.868;10.730;2022-09-21T00:06:22;10.00;;;6.80;;
25982;SDS011;13773;48.868;10.730;2022-09-21T00:08:49;11.30;;;7.07;;
25982;SDS011;13773;48.868;10.730;2022-09-21T00:11:17;8.87;;;7.00;;
25982;SDS011;13773;48.868;10.730;2022-09-21T00:13:45;6.77;;;5.60;;
25982;SDS011;13773;48.868;10.730;2022-09-21T00:16:12;8.40;;;4.80;;
25982;SDS011;13773;48.868;10.730;2022-09-21T00:18:40;8.07;;;4.50;;
25982;SDS011;13773;48.868;10.730;2022-09-21T00:21:06;5.97;;;4.10;;
25982;SDS011;13773;48.868;10.730;2022-09-21T00:23:34;5.63;;;4.30;;
25982;SDS011;13773;48.868;10.730;2022-09-21T00:26:06;11.47;;;5.77;;
25982;SDS011;13773;48.868;10.730;2022-09-21T00:28:37;11.50;;;7.33;;
25982;SDS011;13773;48.868;10.730;2022-09-21T00:31:05;9.50;;;6.80;;
25982;SDS011;13773;48.868;10.730;2022-09-21T00:33:33;7.50;;;4.93;;
25982;SDS011;13773;48.868;10.730;2022-09-21T00:36:05;9.00;;;5.90;;
25982;SDS011;13773;48.868;10.730;2022-09-21T00:38:33;9.20;;;6.77;;
25982;SDS011;13773;48.868;10.730;2022-09-21T00:40:59;12.53;;;8.73;;
25982;SDS011;13773;48.868;10.730;2022-09-21T00:43:25;15.47;;;9.60;;
25982;SDS011;13773;48.868;10.730;2022-09-21T00:45:53;13.20;;;8.93;;
25982;SDS011;13773;48.868;10.730;2022-09-21T00:48:24;14.27;;;8.70;;
25982;SDS011;13773;48.868;10.730;2022-09-21T00:50:51;12.37;;;9.00;;
25982;SDS011;13773;48.868;10.730;2022-09-21T00:53:21;11.87;;;8.67;;
25982;SDS011;13773;48.868;10.730;2022-09-21T00:55:48;12.67;;;8.13;;
25982;SDS011;13773;48.868;10.730;2022-09-21T00:58:19;9.33;;;6.73;;
25982;SDS011;13773;48.868;10.730;2022-09-21T01:00:49;8.00;;;5.87;;
25982;SDS011;13773;48.868;10.730;2022-09-21T01:03:16;8.23;;;5.10;;
25982;SDS011;13773;48.868;10.730;2022-09-21T01:05:41;8.80;;;5.50;;
25982;SDS011;13773;48.868;10.730;2022-09-21T01:08:08;7.83;;;5.50;;
25982;SDS011;13773;48.868;10.730;2022-09-21T01:10:43;10.93;;;6.93;;
25982;SDS011;13773;48.868;10.730;2022-09-21T01:19:24;8.30;;;5.30;;
25982;SDS011;13773;48.868;10.730;2022-09-21T01:22:04;12.20;;;7.30;;
25982;SDS011;13773;48.868;10.730;2022-09-21T01:27:22;8.97;;;5.90;;
25982;SDS011;13773;48.868;10.730;2022-09-21T01:29:56;12.87;;;5.87;;
25982;SDS011;13773;48.868;10.730;2022-09-21T01:32:37;14.77;;;8.10;;
25982;SDS011;13773;48.868;10.730;2022-09-21T01:35:07;12.90;;;9.33;;
25982;SDS011;13773;48.868;10.730;2022-09-21T01:40:11;14.87;;;10.83;;
25982;SDS011;13773;48.868;10.730;2022-09-21T01:42:42;15.77;;;11.17;;
25982;SDS011;13773;48.868;10.730;2022-09-21T01:45:10;17.20;;;11.27;;
25982;SDS011;13773;48.868;10.730;2022-09-21T01:47:40;14.63;;;9.63;;
25982;SDS011;13773;48.868;10.730;2022-09-21T01:50:10;16.60;;;6.90;;
25982;SDS011;13773;48.868;10.730;2022-09-21T01:52:42;15.13;;;8.77;;
25982;SDS011;13773;48.868;10.730;2022-09-21T01:55:27;10.60;;;6.10;;
25982;SDS011;13773;48.868;10.730;2022-09-21T02:00:26;11.77;;;6.30;;
25982;SDS011;13773;48.868;10.730;2022-09-21T02:02:54;12.17;;;7.17;;
25982;SDS011;13773;48.868;10.730;2022-09-21T02:05:36;11.83;;;7.50;;
25982;SDS011;13773;48.868;10.730;2022-09-21T02:08:01;13.70;;;9.30;;
25982;SDS011;13773;48.868;10.730;2022-09-21T02:10:38;16.80;;;11.53;;
25982;SDS011;13773;48.868;10.730;2022-09-21T02:13:11;26.93;;;17.17;;
25982;SDS011;13773;48.868;10.730;2022-09-21T02:18:20;13.73;;;9.77;;
25982;SDS011;13773;48.868;10.730;2022-09-21T02:21:24;18.10;;;11.30;;
25982;SDS011;13773;48.868;10.730;2022-09-21T02:24:06;20.10;;;10.93;;
25982;SDS011;13773;48.868;10.730;2022-09-21T02:27:01;23.77;;;15.43;;
25982;SDS011;13773;48.868;10.730;2022-09-21T02:29:34;16.93;;;9.33;;
25982;SDS011;13773;48.868;10.730;2022-09-21T02:35:01;19.37;;;9.50;;
25982;SDS011;13773;48.868;10.730;2022-09-21T02:43:03;16.40;;;9.23;;
25982;SDS011;13773;48.868;10.730;2022-09-21T02:46:17;26.50;;;14.80;;
25982;SDS011;13773;48.868;10.730;2022-09-21T02:48:34;13.57;;;8.97;;
25982;SDS011;13773;48.868;10.730;2022-09-21T02:51:31;12.07;;;7.73;;
25982;SDS011;13773;48.868;10.730;2022-09-21T02:54:02;12.43;;;7.17;;
25982;SDS011;13773;48.868;10.730;2022-09-21T02:56:30;13.87;;;8.07;;
25982;SDS011;13773;48.868;10.730;2022-09-21T02:58:57;12.70;;;8.70;;
25982;SDS011;13773;48.868;10.730;2022-09-21T03:01:26;17.83;;;9.17;;
25982;SDS011;13773;48.868;10.730;2022-09-21T03:03:53;16.90;;;9.47;;
25982;SDS011;13773;48.868;10.730;2022-09-21T03:06:19;15.23;;;9.50;;
25982;SDS011;13773;48.868;10.730;2022-09-21T03:08:45;17.30;;;10.03;;
25982;SDS011;13773;48.868;10.730;2022-09-21T03:11:15;13.47;;;7.87;;
25982;SDS011;13773;48.868;10.730;2022-09-21T03:13:41;16.50;;;8.60;;
25982;SDS011;13773;48.868;10.730;2022-09-21T03:16:06;16.23;;;10.40;;
25982;SDS011;13773;48.868;10.730;2022-09-21T03:18:33;15.23;;;8.40;;
25982;SDS011;13773;48.868;10.730;2022-09-21T03:20:59;10.77;;;6.63;;
25982;SDS011;13773;48.868;10.730;2022-09-21T03:23:25;19.23;;;11.60;;
25982;SDS011;13773;48.868;10.730;2022-09-21T03:25:51;21.87;;;13.83;;
25982;SDS011;13773;48.868;10.730;2022-09-21T03:28:17;33.90;;;17.87;;
25982;SDS011;13773;48.868;10.730;2022-09-21T03:30:43;84.90;;;22.57;;
25982;SDS011;13773;48.868;10.730;2022-09-21T03:33:09;45.00;;;20.13;;
25982;SDS011;13773;48.868;10.730;2022-09-21T03:35:37;27.83;;;16.93;;
25982;SDS011;13773;48.868;10.730;2022-09-21T03:38:03;33.07;;;19.40;;
25982;SDS011;13773;48.868;10.730;2022-09-21T03:40:29;33.97;;;18.80;;
25982;SDS011;13773;48.868;10.730;2022-09-21T03:42:55;30.13;;;17.87;;
25982;SDS011;13773;48.868;10.730;2022-09-21T03:45:21;21.80;;;15.07;;
25982;SDS011;13773;48.868;10.730;2022-09-21T03:47:47;21.97;;;13.20;;
25982;SDS011;13773;48.868;10.730;2022-09-21T03:50:13;26.07;;;15.53;;
25982;SDS011;13773;48.868;10.730;2022-09-21T03:52:39;16.47;;;8.67;;
25982;SDS011;13773;48.868;10.730;2022-09-21T03:55:06;13.90;;;9.20;;
25982;SDS011;13773;48.868;10.730;2022-09-21T03:57:33;18.83;;;10.47;;
25982;SDS011;13773;48.868;10.730;2022-09-21T04:00:00;13.40;;;9.00;;
25982;SDS011;13773;48.868;10.730;2022-09-21T04:02:28;13.93;;;8.67;;
25982;SDS011;13773;48.868;10.730;2022-09-21T04:04:53;24.33;;;14.03;;
25982;SDS011;13773;48.868;10.730;2022-09-21T04:07:19;29.30;;;16.60;;
25982;SDS011;13773;48.868;10.730;2022-09-21T04:09:45;26.37;;;14.40;;
25982;SDS011;13773;48.868;10.730;2022-09-21T04:12:10;18.07;;;9.73;;
25982;SDS011;13773;48.868;10.730;2022-09-21T04:14:37;12.97;;;8.90;;
25982;SDS011;13773;48.868;10.730;2022-09-21T04:17:02;12.00;;;7.70;;
25982;SDS011;13773;48.868;10.730;2022-09-21T04:19:28;10.43;;;7.10;;
25982;SDS011;13773;48.868;10.730;2022-09-21T04:21:54;8.70;;;6.10;;
25982;SDS011;13773;48.868;10.730;2022-09-21T04:24:20;10.60;;;6.73;;
25982;SDS011;13773;48.868;10.730;2022-09-21T04:26:46;10.53;;;6.40;;
25982;SDS011;13773;48.868;10.730;2022-09-21T04:29:13;9.63;;;6.17;;
25982;SDS011;13773;48.868;10.730;2022-09-21T04:31:39;11.63;;;7.03;;
25982;SDS011;13773;48.868;10.730;2022-09-21T04:34:06;11.70;;;7.33;;
25982;SDS011;13773;48.868;10.730;2022-09-21T04:36:35;10.67;;;7.40;;
25982;SDS011;13773;48.868;10.730;2022-09-21T04:39:02;14.93;;;7.80;;
25982;SDS011;13773;48.868;10.730;2022-09-21T04:41:28;12.07;;;6.93;;
25982;SDS011;13773;48.868;10.730;2022-09-21T04:43:54;13.67;;;7.90;;
25982;SDS011;13773;48.868;10.730;2022-09-21T04:46:19;19.10;;;10.90;;
25982;SDS011;13773;48.868;10.730;2022-09-21T04:48:46;22.57;;;11.50;;
25982;SDS011;13773;48.868;10.730;2022-09-21T04:51:12;34.10;;;18.70;;
25982;SDS011;13773;48.868;10.730;2022-09-21T04:53:39;37.10;;;22.57;;
25982;SDS011;13773;48.868;10.730;2022-09-21T04:56:06;39.60;;;19.57;;
25982;SDS011;13773;48.868;10.730;2022-09-21T04:58:33;36.63;;;20.23;;
25982;SDS011;13773;48.868;10.730;2022-09-21T05:00:59;39.10;;;21.67;;
25982;SDS011;13773;48.868;10.730;2022-09-21T05:03:25;36.40;;;21.40;;
25982;SDS011;13773;48.868;10.730;2022-09-21T05:05:52;46.37;;;23.13;;
25982;SDS011;13773;48.868;10.730;2022-09-21T05:08:20;46.67;;;20.57;;
25982;SDS011;13773;48.868;10.730;2022-09-21T05:11:06;168.33;;;30.37;;
25982;SDS011;13773;48.868;10.730;2022-09-21T05:13:34;128.70;;;27.30;;
25982;SDS011;13773;48.868;10.730;2022-09-21T05:16:00;34.93;;;19.83;;
25982;SDS011;13773;48.868;10.730;2022-09-21T05:18:26;44.87;;;20.03;;
25982;SDS011;13773;48.868;10.730;2022-09-21T05:20:56;51.43;;;19.93;;
25982;SDS011;13773;48.868;10.730;2022-09-21T05:23:23;40.53;;;17.20;;
25982;SDS011;13773;48.868;10.730;2022-09-21T05:25:50;32.47;;;17.13;;
25982;SDS011;13773;48.868;10.730;2022-09-21T05:28:16;29.40;;;16.13;;
25982;SDS011;13773;48.868;10.730;2022-09-21T05:30:43;36.13;;;18.00;;
25982;SDS011;13773;48.868;10.730;2022-09-21T05:33:12;31.73;;;16.93;;
25982;SDS011;13773;48.868;10.730;2022-09-21T05:35:53;32.50;;;19.20;;
25982;SDS011;13773;48.868;10.730;2022-09-21T05:38:34;25.93;;;17.20;;
25982;SDS011;13773;48.868;10.730;2022-09-21T05:41:00;23.37;;;15.70;;
25982;SDS011;13773;48.868;10.730;2022-09-21T05:43:26;19.17;;;13.47;;
25982;SDS011;13773;48.868;10.730;2022-09-21T05:45:55;20.53;;;13.80;;
25982;SDS011;13773;48.868;10.730;2022-09-21T05:48:32;23.93;;;13.63;;
25982;SDS011;13773;48.868;10.730;2022-09-21T05:51:05;25.70;;;14.27;;
25982;SDS011;13773;48.868;10.730;2022-09-21T05:58:55;21.63;;;14.07;;
25982;SDS011;13773;48.868;10.730;2022-09-21T06:01:27;23.33;;;13.90;;
25982;SDS011;13773;48.868;10.730;2022-09-21T06:03:58;23.87;;;15.27;;
25982;SDS011;13773;48.868;10.730;2022-09-21T06:06:25;30.30;;;15.87;;
25982;SDS011;13773;48.868;10.730;2022-09-21T06:08:51;22.23;;;14.30;;
25982;SDS011;13773;48.868;10.730;2022-09-21T06:11:16;21.60;;;14.47;;
25982;SDS011;13773;48.868;10.730;2022-09-21T06:13:42;20.20;;;12.93;;
25982;SDS011;13773;48.868;10.730;2022-09-21T06:16:08;20.33;;;13.00;;
25982;SDS011;13773;48.868;10.730;2022-09-21T06:18:37;23.47;;;14.13;;
25982;SDS011;13773;48.868;10.730;2022-09-21T06:21:04;21.90;;;13.80;;
25982;SDS011;13773;48.868;10.730;2022-09-21T06:23:31;24.03;;;16.47;;
25982;SDS011;13773;48.868;10.730;2022-09-21T06:25:57;27.47;;;17.20;;
25982;SDS011;13773;48.868;10.730;2022-09-21T06:28:22;26.13;;;17.20;;
25982;SDS011;13773;48.868;10.730;2022-09-21T06:30:52;23.63;;;15.83;;
25982;SDS011;13773;48.868;10.730;2022-09-21T06:33:19;23.53;;;14.37;;
25982;SDS011;13773;48.868;10.730;2022-09-21T06:35:57;33.73;;;18.60;;
25982;SDS011;13773;48.868;10.730;2022-09-21T06:38:24;37.40;;;21.20;;
25982;SDS011;13773;48.868;10.730;2022-09-21T06:40:50;110.17;;;29.77;;
25982;SDS011;13773;48.868;10.730;2022-09-21T06:43:17;75.07;;;28.93;;
25982;SDS011;13773;48.868;10.730;2022-09-21T06:45:43;71.13;;;31.23;;
25982;SDS011;13773;48.868;10.730;2022-09-21T06:48:16;59.10;;;23.33;;
25982;SDS011;13773;48.868;10.730;2022-09-21T06:50:41;86.33;;;32.80;;
25982;SDS011;13773;48.868;10.730;2022-09-21T06:53:07;48.80;;;27.93;;
25982;SDS011;13773;48.868;10.730;2022-09-21T06:55:33;41.67;;;26.97;;
25982;SDS011;13773;48.868;10.730;2022-09-21T06:58:02;32.33;;;21.80;;
25982;SDS011;13773;48.868;10.730;2022-09-21T07:00:28;34.10;;;20.07;;
25982;SDS011;13773;48.868;10.730;2022-09-21T07:02:55;26.70;;;18.07;;
25982;SDS011;13773;48.868;10.730;2022-09-21T07:05:20;29.33;;;17.93;;
25982;SDS011;13773;48.868;10.730;2022-09-21T07:07:47;27.70;;;17.20;;
25982;SDS011;13773;48.868;10.730;2022-09-21T07:10:12;28.00;;;17.80;;
25982;SDS011;13773;48.868;10.730;2022-09-21T07:12:38;24.33;;;18.37;;
25982;SDS011;13773;48.868;10.730;2022-09-21T07:15:07;31.33;;;20.27;;
25982;SDS011;13773;48.868;10.730;2022-09-21T07:17:35;24.30;;;17.30;;
25982;SDS011;13773;48.868;10.730;2022-09-21T07:20:03;37.00;;;23.73;;
25982;SDS011;13773;48.868;10.730;2022-09-21T07:22:30;46.40;;;21.77;;
25982;SDS011;13773;48.868;10.730;2022-09-21T07:24:56;45.03;;;25.93;;
25982;SDS011;13773;48.868;10.730;2022-09-21T07:27:23;54.80;;;18.20;;
25982;SDS011;13773;48.868;10.730;2022-09-21T07:29:50;26.93;;;16.53;;
25982;SDS011;13773;48.868;10.730;2022-09-21T07:32:16;38.00;;;14.23;;
25982;SDS011;13773;48.868;10.730;2022-09-21T07:34:42;93.87;;;16.80;;
25982;SDS011;13773;48.868;10.730;2022-09-21T07:37:09;22.93;;;12.87;;
25982;SDS011;13773;48.868;10.730;2022-09-21T07:39:34;36.23;;;13.97;;
25982;SDS011;13773;48.868;10.730;2022-09-21T07:42:00;19.47;;;12.93;;
25982;SDS011;13773;48.868;10.730;2022-09-21T07:44:26;15.10;;;11.10;;
25982;SDS011;13773;48.868;10.730;2022-09-21T07:46:52;23.53;;;8.93;;
25982;SDS011;13773;48.868;10.730;2022-09-21T07:49:18;16.47;;;9.20;;
25982;SDS011;13773;48.868;10.730;2022-09-21T07:51:43;22.13;;;8.20;;
25982;SDS011;13773;48.868;10.730;2022-09-21T07:54:09;8.70;;;6.57;;
25982;SDS011;13773;48.868;10.730;2022-09-21T07:56:36;25.73;;;7.27;;
25982;SDS011;13773;48.868;10.730;2022-09-21T07:59:02;35.43;;;7.73;;
25982;SDS011;13773;48.868;10.730;2022-09-21T08:01:35;9.33;;;6.50;;
25982;SDS011;13773;48.868;10.730;2022-09-21T08:04:03;44.30;;;7.53;;
25982;SDS011;13773;48.868;10.730;2022-09-21T08:06:31;29.23;;;6.80;;
25982;SDS011;13773;48.868;10.730;2022-09-21T08:08:59;13.43;;;5.53;;
25982;SDS011;13773;48.868;10.730;2022-09-21T08:11:26;12.73;;;6.23;;
25982;SDS011;13773;48.868;10.730;2022-09-21T08:13:54;12.47;;;6.03;;
25982;SDS011;13773;48.868;10.730;2022-09-21T08:16:25;9.27;;;6.00;;
25982;SDS011;13773;48.868;10.730;2022-09-21T08:18:53;4.43;;;3.97;;
25982;SDS011;13773;48.868;10.730;2022-09-21T08:21:19;11.20;;;5.40;;
25982;SDS011;13773;48.868;10.730;2022-09-21T08:23:46;26.80;;;5.90;;
25982;SDS011;13773;48.868;10.730;2022-09-21T08:26:15;33.53;;;4.60;;
25982;SDS011;13773;48.868;10.730;2022-09-21T08:28:46;8.87;;;3.93;;
25982;SDS011;13773;48.868;10.730;2022-09-21T08:31:13;9.50;;;4.33;;
25982;SDS011;13773;48.868;10.730;2022-09-21T08:33:41;10.53;;;4.13;;
25982;SDS011;13773;48.868;10.730;2022-09-21T08:36:07;5.60;;;5.03;;
25982;SDS011;13773;48.868;10.730;2022-09-21T08:38:34;6.70;;;5.10;;
25982;SDS011;13773;48.868;10.730;2022-09-21T08:41:02;5.97;;;4.73;;
25982;SDS011;13773;48.868;10.730;2022-09-21T08:43:44;5.63;;;4.80;;
25982;SDS011;13773;48.868;10.730;2022-09-21T08:46:17;9.50;;;6.73;;
25982;SDS011;13773;48.868;10.730;2022-09-21T08:48:58;5.37;;;4.87;;
25982;SDS011;13773;48.868;10.730;2022-09-21T08:51:52;6.63;;;5.67;;
25982;SDS011;13773;48.868;10.730;2022-09-21T08:56:56;5.93;;;5.30;;
25982;SDS011;13773;48.868;10.730;2022-09-21T08:59:22;6.27;;;5.67;;
25982;SDS011;13773;48.868;10.730;2022-09-21T09:01:56;6.53;;;5.37;;
25982;SDS011;13773;48.868;10.730;2022-09-21T09:11:12;5.87;;;5.30;;
25982;SDS011;13773;48.868;10.730;2022-09-21T09:22:03;5.00;;;3.43;;
25982;SDS011;13773;48.868;10.730;2022-09-21T09:27:24;4.93;;;3.83;;
25982;SDS011;13773;48.868;10.730;2022-09-21T09:30:02;3.50;;;3.20;;
25982;SDS011;13773;48.868;10.730;2022-09-21T09:32:43;4.47;;;3.00;;
25982;SDS011;13773;48.868;10.730;2022-09-21T09:38:09;3.87;;;2.57;;
25982;SDS011;13773;48.868;10.730;2022-09-21T09:46:37;2.70;;;2.30;;
25982;SDS011;13773;48.868;10.730;2022-09-21T09:52:09;2.30;;;2.10;;
25982;SDS011;13773;48.868;10.730;2022-09-21T09:54:37;2.53;;;2.00;;
25982;SDS011;13773;48.868;10.730;2022-09-21T09:57:03;2.73;;;2.10;;
25982;SDS011;13773;48.868;10.730;2022-09-21T09:59:46;3.47;;;1.67;;
25982;SDS011;13773;48.868;10.730;2022-09-21T10:02:21;3.27;;;1.63;;
25982;SDS011;13773;48.868;10.730;2022-09-21T10:05:02;2.17;;;1.40;;
25982;SDS011;13773;48.868;10.730;2022-09-21T10:07:34;2.10;;;0.97;;
25982;SDS011;13773;48.868;10.730;2022-09-21T10:12:49;0.97;;;0.73;;
25982;SDS011;13773;48.868;10.730;2022-09-21T10:15:17;1.17;;;0.77;;
25982;SDS011;13773;48.868;10.730;2022-09-21T10:17:44;1.53;;;0.77;;
25982;SDS011;13773;48.868;10.730;2022-09-21T10:20:16;1.10;;;0.70;;
25982;SDS011;13773;48.868;10.730;2022-09-21T10:22:45;1.47;;;0.93;;
25982;SDS011;13773;48.868;10.730;2022-09-21T10:25:17;1.73;;;0.73;;
25982;SDS011;13773;48.868;10.730;2022-09-21T10:27:46;1.80;;;0.83;;
25982;SDS011;13773;48.868;10.730;2022-09-21T10:30:47;1.43;;;0.90;;
25982;SDS011;13773;48.868;10.730;2022-09-21T10:33:16;2.17;;;0.90;;
25982;SDS011;13773;48.868;10.730;2022-09-21T10:35:47;1.53;;;0.90;;
25982;SDS011;13773;48.868;10.730;2022-09-21T10:38:17;1.87;;;0.90;;
25982;SDS011;13773;48.868;10.730;2022-09-21T10:40:53;0.80;;;0.70;;
25982;SDS011;13773;48.868;10.730;2022-09-21T10:43:32;0.87;;;0.80;;
25982;SDS011;13773;48.868;10.730;2022-09-21T10:46:00;1.10;;;0.80;;
25982;SDS011;13773;48.868;10.730;2022-09-21T10:48:26;1.10;;;0.60;;
25982;SDS011;13773;48.868;10.730;2022-09-21T10:50:53;1.60;;;0.70;;
25982;SDS011;13773;48.868;10.730;2022-09-21T10:53:28;1.17;;;0.83;;
25982;SDS011;13773;48.868;10.730;2022-09-21T10:58:30;1.73;;;0.90;;
25982;SDS011;13773;48.868;10.730;2022-09-21T11:01:08;1.80;;;0.80;;
25982;SDS011;13773;48.868;10.730;2022-09-21T11:06:28;1.20;;;0.80;;
25982;SDS011;13773;48.868;10.730;2022-09-21T11:09:10;1.23;;;0.80;;
25982;SDS011;13773;48.868;10.730;2022-09-21T11:11:42;1.20;;;1.00;;
25982;SDS011;13773;48.868;10.730;2022-09-21T11:14:15;1.00;;;0.90;;
25982;SDS011;13773;48.868;10.730;2022-09-21T11:27:44;2.07;;;0.80;;
25982;SDS011;13773;48.868;10.730;2022-09-21T11:30:16;2.73;;;1.07;;
25982;SDS011;13773;48.868;10.730;2022-09-21T12:09:16;1.90;;;1.10;;
25982;SDS011;13773;48.868;10.730;2022-09-21T12:12:09;1.47;;;0.80;;
25982;SDS011;13773;48.868;10.730;2022-09-21T12:17:45;1.30;;;0.83;;
25982;SDS011;13773;48.868;10.730;2022-09-21T12:23:07;1.23;;;0.80;;
25982;SDS011;13773;48.868;10.730;2022-09-21T12:25:56;1.77;;;1.00;;
25982;SDS011;13773;48.868;10.730;2022-09-21T12:31:07;1.13;;;1.00;;
25982;SDS011;13773;48.868;10.730;2022-09-21T12:33:45;1.47;;;0.97;;
25982;SDS011;13773;48.868;10.730;2022-09-21T12:36:26;1.00;;;0.90;;
25982;SDS011;13773;48.868;10.730;2022-09-21T12:41:41;1.00;;;0.87;;
25982;SDS011;13773;48.868;10.730;2022-09-21T12:44:25;0.97;;;0.90;;
25982;SDS011;13773;48.868;10.730;2022-09-21T12:47:03;2.87;;;1.27;;
25982;SDS011;13773;48.868;10.730;2022-09-21T12:49:37;2.33;;;1.10;;
25982;SDS011;13773;48.868;10.730;2022-09-21T12:52:18;1.20;;;1.00;;
25982;SDS011;13773;48.868;10.730;2022-09-21T12:54:52;2.53;;;1.00;;
25982;SDS011;13773;48.868;10.730;2022-09-21T12:57:28;1.00;;;0.90;;
25982;SDS011;13773;48.868;10.730;2022-09-21T13:00:12;2.27;;;1.10;;
25982;SDS011;13773;48.868;10.730;2022-09-21T13:05:28;2.90;;;1.23;;
25982;SDS011;13773;48.868;10.730;2022-09-21T13:08:11;2.73;;;1.50;;
25982;SDS011;13773;48.868;10.730;2022-09-21T13:10:47;1.37;;;1.00;;
25982;SDS011;13773;48.868;10.730;2022-09-21T13:13:26;1.97;;;1.10;;
25982;SDS011;13773;48.868;10.730;2022-09-21T13:16:29;1.90;;;1.23;;
25982;SDS011;13773;48.868;10.730;2022-09-21T13:18:59;2.07;;;1.07;;
25982;SDS011;13773;48.868;10.730;2022-09-21T13:21:41;1.03;;;0.93;;
25982;SDS011;13773;48.868;10.730;2022-09-21T13:24:22;1.03;;;0.90;;
25982;SDS011;13773;48.868;10.730;2022-09-21T13:26:52;1.37;;;1.00;;
25982;SDS011;13773;48.868;10.730;2022-09-21T13:34:25;1.43;;;1.03;;
25982;SDS011;13773;48.868;10.730;2022-09-21T13:39:43;1.93;;;1.30;;
25982;SDS011;13773;48.868;10.730;2022-09-21T13:44:59;1.40;;;1.20;;
25982;SDS011;13773;48.868;10.730;2022-09-21T13:49:59;1.30;;;1.20;;
25982;SDS011;13773;48.868;10.730;2022-09-21T13:52:38;1.37;;;1.20;;
25982;SDS011;13773;48.868;10.730;2022-09-21T13:55:24;1.40;;;1.30;;
25982;SDS011;13773;48.868;10.730;2022-09-21T13:57:56;1.60;;;1.50;;
25982;SDS011;13773;48.868;10.730;2022-09-21T14:00:33;1.03;;;0.77;;
25982;SDS011;13773;48.868;10.730;2022-09-21T14:03:05;1.10;;;1.00;;
25982;SDS011;13773;48.868;10.730;2022-09-21T14:06:26;1.00;;;0.90;;
25982;SDS011;13773;48.868;10.730;2022-09-21T14:08:36;1.53;;;0.93;;
25982;SDS011;13773;48.868;10.730;2022-09-21T14:11:09;1.67;;;1.00;;
25982;SDS011;13773;48.868;10.730;2022-09-21T14:14:20;1.23;;;1.10;;
25982;SDS011;13773;48.868;10.730;2022-09-21T14:19:59;1.57;;;1.20;;
25982;SDS011;13773;48.868;10.730;2022-09-21T14:25:14;1.57;;;1.20;;
25982;SDS011;13773;48.868;10.730;2022-09-21T14:27:48;1.57;;;1.10;;
25982;SDS011;13773;48.868;10.730;2022-09-21T14:30:17;3.23;;;1.13;;
25982;SDS011;13773;48.868;10.730;2022-09-21T14:32:50;1.57;;;1.10;;
25982;SDS011;13773;48.868;10.730;2022-09-21T14:35:23;0.93;;;0.93;;
25982;SDS011;13773;48.868;10.730;2022-09-21T14:41:06;1.13;;;0.87;;
25982;SDS011;13773;48.868;10.730;2022-09-21T14:43:33;1.03;;;0.90;;
25982;SDS011;13773;48.868;10.730;2022-09-21T14:48:49;1.17;;;1.00;;
25982;SDS011;13773;48.868;10.730;2022-09-21T15:02:20;2.27;;;0.90;;
25982;SDS011;13773;48.868;10.730;2022-09-21T15:11:35;0.90;;;0.90;;
25982;SDS011;13773;48.868;10.730;2022-09-21T15:16:56;1.67;;;1.20;;
25982;SDS011;13773;48.868;10.730;2022-09-21T15:19:28;2.57;;;1.03;;
25982;SDS011;13773;48.868;10.730;2022-09-21T15:22:17;2.10;;;1.00;;
25982;SDS011;13773;48.868;10.730;2022-09-21T15:24:52;1.50;;;0.90;;
25982;SDS011;13773;48.868;10.730;2022-09-21T15:27:21;1.47;;;1.10;;
25982;SDS011;13773;48.868;10.730;2022-09-21T15:29:50;2.80;;;1.13;;
25982;SDS011;13773;48.868;10.730;2022-09-21T15:32:31;1.33;;;1.07;;
25982;SDS011;13773;48.868;10.730;2022-09-21T15:37:44;1.40;;;1.10;;
25982;SDS011;13773;48.868;10.730;2022-09-21T15:40:24;2.03;;;1.00;;
25982;SDS011;13773;48.868;10.730;2022-09-21T15:42:58;2.43;;;1.10;;
25982;SDS011;13773;48.868;10.730;2022-09-21T15:45:25;1.47;;;1.00;;
25982;SDS011;13773;48.868;10.730;2022-09-21T15:47:58;2.40;;;0.90;;
25982;SDS011;13773;48.868;10.730;2022-09-21T15:50:24;1.20;;;1.10;;
25982;SDS011;13773;48.868;10.730;2022-09-21T15:52:54;1.70;;;1.10;;
25982;SDS011;13773;48.868;10.730;2022-09-21T15:55:24;0.90;;;0.90;;
25982;SDS011;13773;48.868;10.730;2022-09-21T15:57:50;1.33;;;1.00;;
25982;SDS011;13773;48.868;10.730;2022-09-21T16:05:21;1.30;;;0.80;;
25982;SDS011;13773;48.868;10.730;2022-09-21T16:07:48;1.23;;;1.07;;
25982;SDS011;13773;48.868;10.730;2022-09-21T16:13:02;0.90;;;0.90;;
25982;SDS011;13773;48.868;10.730;2022-09-21T16:18:32;1.00;;;0.90;;
25982;SDS011;13773;48.868;10.730;2022-09-21T16:21:08;1.23;;;1.00;;
25982;SDS011;13773;48.868;10.730;2022-09-21T16:23:39;1.10;;;1.00;;
25982;SDS011;13773;48.868;10.730;2022-09-21T16:26:04;3.40;;;1.00;;
25982;SDS011;13773;48.868;10.730;2022-09-21T16:31:20;1.00;;;0.90;;
25982;SDS011;13773;48.868;10.730;2022-09-21T16:38:58;1.73;;;0.90;;
25982;SDS011;13773;48.868;10.730;2022-09-21T16:42:09;1.00;;;0.80;;
25982;SDS011;13773;48.868;10.730;2022-09-21T16:44:23;2.17;;;1.10;;
25982;SDS011;13773;48.868;10.730;2022-09-21T16:46:51;2.00;;;1.00;;
25982;SDS011;13773;48.868;10.730;2022-09-21T16:49:22;1.07;;;0.70;;
25982;SDS011;13773;48.868;10.730;2022-09-21T16:51:51;1.07;;;1.00;;
25982;SDS011;13773;48.868;10.730;2022-09-21T16:54:19;1.20;;;1.10;;
25982;SDS011;13773;48.868;10.730;2022-09-21T16:56:48;1.30;;;1.20;;
25982;SDS011;13773;48.868;10.730;2022-09-21T16:59:16;1.87;;;1.10;;
25982;SDS011;13773;48.868;10.730;2022-09-21T17:01:47;1.10;;;1.00;;
25982;SDS011;13773;48.868;10.730;2022-09-21T17:04:17;1.20;;;1.00;;
25982;SDS011;13773;48.868;10.730;2022-09-21T17:06:46;1.40;;;1.03;;
25982;SDS011;13773;48.868;10.730;2022-09-21T17:09:15;0.97;;;0.97;;
25982;SDS011;13773;48.868;10.730;2022-09-21T17:11:44;1.60;;;1.17;;
25982;SDS011;13773;48.868;10.730;2022-09-21T17:14:11;1.87;;;0.83;;
25982;SDS011;13773;48.868;10.730;2022-09-21T17:16:40;1.70;;;1.07;;
25982;SDS011;13773;48.868;10.730;2022-09-21T17:19:08;1.83;;;1.30;;
25982;SDS011;13773;48.868;10.730;2022-09-21T17:21:34;1.40;;;1.20;;
25982;SDS011;13773;48.868;10.730;2022-09-21T17:24:00;2.80;;;1.30;;
25982;SDS011;13773;48.868;10.730;2022-09-21T17:26:25;2.03;;;1.03;;
25982;SDS011;13773;48.868;10.730;2022-09-21T17:28:52;1.20;;;1.10;;
25982;SDS011;13773;48.868;10.730;2022-09-21T17:31:17;1.03;;;1.03;;
25982;SDS011;13773;48.868;10.730;2022-09-21T17:33:47;1.47;;;1.20;;
25982;SDS011;13773;48.868;10.730;2022-09-21T17:36:14;1.80;;;1.30;;
25982;SDS011;13773;48.868;10.730;2022-09-21T17:38:41;1.43;;;1.13;;
25982;SDS011;13773;48.868;10.730;2022-09-21T17:41:27;3.30;;;1.20;;
25982;SDS011;13773;48.868;10.730;2022-09-21T17:44:10;1.20;;;1.10;;
25982;SDS011;13773;48.868;10.730;2022-09-21T17:46:46;1.50;;;1.07;;
25982;SDS011;13773;48.868;10.730;2022-09-21T17:49:20;1.10;;;1.10;;
25982;SDS011;13773;48.868;10.730;2022-09-21T17:51:45;1.07;;;1.00;;
25982;SDS011;13773;48.868;10.730;2022-09-21T17:54:30;2.13;;;1.20;;
25982;SDS011;13773;48.868;10.730;2022-09-21T17:59:35;1.87;;;1.20;;
25982;SDS011;13773;48.868;10.730;2022-09-21T18:02:03;1.67;;;1.00;;
25982;SDS011;13773;48.868;10.730;2022-09-21T18:04:52;1.90;;;1.07;;
25982;SDS011;13773;48.868;10.730;2022-09-21T18:07:23;1.20;;;1.10;;